Gilmer, Texas
Current Conditions -  °F | °C
As of 10:35 PM on Thursday 20 Nov 2014 (Local Time) from KOSA Reporting Station
Scattered Clouds Scattered Clouds  
Wind Chill: 58°   Ceiling: Unl
Heat Index: 58°   Visibility: 10mi
Dew Point: 55°   Wind: 3mph
Humidity: 88%   Direction: 170°S
Pressure: 30.14"   Gusts: NA
Location:  32.73°N, 94.95°W
Report Text: KOSA 210435Z AUTO 17003KT 10SM SCT033 SCT048 SCT070 15/13 A3014 RMK AO1 T01450126
Loading
Personal Weather Stations






























Interactive Weather Map New forecast layout! Learn more

10-Day Weather Forecast

Advertisements
Track Severe Weather on mobile